Time;durP1;ratioP1;P1;durP2;ratioP2;P2;SDS_P1;SDS_P2;PMS_P1;PMS_P2;Temp;Humidity;BMP_temperature;BMP_pressure;BME280_temperature;BME280_humidity;BME280_pressure;Samples;Min_cycle;Max_cycle;Signal;HPM_P1;HPM_P2
2022/07/17 00:00:54;;;;;;;4.75;1.38;;;;;;;13.31;66.30;101670.59;4971649;28;20096;-73
2022/07/17 00:03:57;;;;;;;3.80;1.30;;;;;;;13.29;66.68;101679.44;4971712;28;20416;-73
2022/07/17 00:07:01;;;;;;;5.70;1.25;;;;;;;13.36;66.75;101675.63;4971516;28;20527;-72
2022/07/17 00:10:05;;;;;;;5.82;1.77;;;;;;;13.33;66.55;101670.50;4971572;28;20049;-72
2022/07/17 00:13:09;;;;;;;6.03;1.58;;;;;;;13.07;67.31;101683.00;4972094;28;20050;-72
2022/07/17 00:16:13;;;;;;;3.95;1.60;;;;;;;12.99;67.63;101677.25;4971878;28;20808;-72
2022/07/17 00:19:16;;;;;;;5.35;1.50;;;;;;;12.93;67.73;101673.13;4971725;28;20050;-72
2022/07/17 00:22:20;;;;;;;3.35;1.38;;;;;;;12.88;67.30;101671.59;4970807;28;20046;-72
2022/07/17 00:25:24;;;;;;;3.67;1.38;;;;;;;12.82;67.44;101670.09;4969992;28;20129;-72
2022/07/17 00:28:28;;;;;;;4.82;1.42;;;;;;;12.73;68.59;101663.50;4971395;28;20050;-72
2022/07/17 00:31:31;;;;;;;6.10;1.38;;;;;;;12.69;69.11;101661.03;4971613;28;20049;-71
2022/07/17 00:34:35;;;;;;;3.83;1.40;;;;;;;12.73;68.83;101666.13;4971130;28;20539;-71
2022/07/17 00:37:43;;;;;;;3.28;1.15;;;;;;;12.69;68.92;101666.28;4970993;28;20045;-72
2022/07/17 00:40:48;;;;;;;3.92;1.30;;;;;;;12.62;68.90;101673.56;4970776;28;20093;-72
2022/07/17 00:44:07;;;;;;;3.67;1.20;;;;;;;12.43;69.84;101664.78;4980301;28;20057;-72
2022/07/17 00:47:15;;;;;;;5.43;1.63;;;;;;;12.28;70.34;101663.63;4971255;28;20473;-72
2022/07/17 00:50:19;;;;;;;4.63;1.30;;;;;;;12.44;69.53;101667.31;4971025;28;20074;-72
2022/07/17 00:53:22;;;;;;;5.95;1.95;;;;;;;12.44;69.54;101669.09;4970128;28;20096;-72
2022/07/17 00:56:27;;;;;;;2.80;1.23;;;;;;;12.43;69.48;101664.78;4970345;28;20787;-73
2022/07/17 00:59:33;;;;;;;3.50;1.58;;;;;;;12.33;69.62;101667.78;4970745;28;20041;-72
2022/07/17 01:02:38;;;;;;;2.53;1.23;;;;;;;12.40;69.77;101662.28;4970049;28;20097;-73
2022/07/17 01:05:42;;;;;;;4.28;1.35;;;;;;;12.42;69.91;101660.47;4970067;28;20058;-73
2022/07/17 01:08:45;;;;;;;5.47;1.20;;;;;;;12.34;69.97;101658.13;4961616;28;20067;-73
2022/07/17 01:11:50;;;;;;;5.25;1.33;;;;;;;12.30;70.39;101661.81;4951522;29;20050;-73
2022/07/17 01:14:55;;;;;;;2.85;1.23;;;;;;;12.31;70.14;101661.72;4950881;29;20082;-72
2022/07/17 01:17:59;;;;;;;3.80;1.42;;;;;;;12.22;70.18;101664.75;4950662;29;20098;-72
2022/07/17 01:21:04;;;;;;;3.78;1.30;;;;;;;12.10;70.19;101657.38;4954856;28;20571;-72
2022/07/17 01:24:11;;;;;;;4.72;1.40;;;;;;;12.03;70.52;101669.03;4969659;28;20415;-73
2022/07/17 01:27:19;;;;;;;3.40;1.50;;;;;;;11.95;70.65;101665.88;4969596;28;20100;-72
2022/07/17 01:30:26;;;;;;;3.65;1.23;;;;;;;11.91;70.78;101670.38;4969919;28;20054;-72
2022/07/17 01:33:29;;;;;;;3.50;1.42;;;;;;;11.94;71.10;101665.00;4969572;28;20042;-72
2022/07/17 01:36:32;;;;;;;;;;;;;;;11.95;71.36;101668.47;4970145;28;20077;-72
2022/07/17 01:39:54;;;;;;;4.15;1.10;;;;;;;12.03;70.98;101669.03;4970435;28;19929;-72
2022/07/17 01:42:57;;;;;;;4.28;1.40;;;;;;;11.81;71.43;101666.38;4968448;28;20053;-72
2022/07/17 01:46:00;;;;;;;4.75;1.20;;;;;;;11.78;71.50;101679.59;4969950;28;20054;-71
2022/07/17 01:49:03;;;;;;;;;;;;;;;11.76;71.73;101681.41;4970715;28;20415;-72
2022/07/17 01:52:07;;;;;;;5.35;1.30;;;;;;;11.82;71.15;101681.19;4950554;29;20008;-72
2022/07/17 01:55:13;;;;;;;4.63;1.05;;;;;;;11.77;71.37;101684.00;4950103;29;20833;-71
2022/07/17 01:58:16;;;;;;;4.40;1.27;;;;;;;11.62;71.80;101695.91;4950022;29;20640;-71
2022/07/17 02:01:19;;;;;;;3.85;1.40;;;;;;;11.72;71.75;101695.56;4950040;28;20153;-72
2022/07/17 02:04:22;;;;;;;;;;;;;;;11.66;71.71;101696.66;4958400;28;20050;-71
2022/07/17 02:07:26;;;;;;;4.47;1.40;;;;;;;11.46;72.03;101699.16;4969633;28;19945;-71
2022/07/17 02:10:30;;;;;;;5.03;1.50;;;;;;;11.40;72.34;101700.25;4970270;28;20526;-72
2022/07/17 02:13:33;;;;;;;3.28;1.30;;;;;;;11.38;72.49;101702.91;4969137;28;20662;-72
2022/07/17 02:16:37;;;;;;;3.88;1.52;;;;;;;11.35;72.53;101697.78;4969242;28;20302;-71
2022/07/17 02:19:40;;;;;;;4.45;1.42;;;;;;;11.26;72.42;101698.09;4978960;28;20097;-71
2022/07/17 02:22:44;;;;;;;2.55;1.20;;;;;;;11.26;72.70;101705.13;4969443;28;20053;-72
2022/07/17 02:25:48;;;;;;;4.25;1.60;;;;;;;11.49;72.12;101699.06;4969334;28;20041;-71
2022/07/17 02:28:51;;;;;;;;;;;;;;;11.33;72.75;101698.78;4970114;28;20050;-72
2022/07/17 02:31:54;;;;;;;6.63;1.73;;;;;;;11.28;73.11;101696.31;4969221;28;19921;-72
2022/07/17 02:34:57;;;;;;;;;;;;;;;11.31;72.91;101704.03;4969428;28;20632;-71
2022/07/17 02:38:01;;;;;;;3.13;1.42;;;;;;;11.27;72.88;101697.22;4969188;28;20068;-74
2022/07/17 02:41:04;;;;;;;2.47;1.13;;;;;;;11.14;73.08;101698.56;4969562;28;20096;-72
2022/07/17 02:44:08;;;;;;;5.78;1.83;;;;;;;11.13;73.50;101695.06;4968687;28;20078;-72
2022/07/17 03:28:50;;;;;;;2.00;0.93;;;;;;;10.47;74.30;101715.69;4957705;28;20327;-73
2022/07/17 03:31:53;;;;;;;2.97;1.45;;;;;;;10.63;73.43;101713.41;4972076;28;20081;-72
2022/07/17 03:34:56;;;;;;;4.75;1.65;;;;;;;10.55;73.36;101710.19;4972202;28;20105;-72
2022/07/17 03:38:00;;;;;;;4.68;1.98;;;;;;;10.41;73.84;101707.19;4972519;28;20184;-72
2022/07/17 03:41:03;;;;;;;4.47;1.63;;;;;;;10.50;73.96;101716.47;4971882;28;20565;-73
2022/07/17 03:44:06;;;;;;;7.60;1.55;;;;;;;10.56;74.14;101713.66;4971722;28;20121;-73
2022/07/17 03:47:11;;;;;;;2.97;1.10;;;;;;;10.80;73.49;101715.44;4971501;28;20050;-73
2022/07/17 03:50:14;;;;;;;3.45;1.10;;;;;;;10.70;73.75;101712.28;4970976;28;20113;-73
2022/07/17 03:53:17;;;;;;;4.03;1.10;;;;;;;10.65;73.58;101714.19;4971973;28;20085;-72
2022/07/17 03:56:21;;;;;;;;;;;;;;;10.54;73.91;101712.88;4972346;28;20561;-72
2022/07/17 03:59:24;;;;;;;5.15;1.65;;;;;;;10.41;74.81;101718.50;4971868;28;20323;-72
2022/07/17 04:02:28;;;;;;;;;;;;;;;10.49;74.83;101726.06;4971656;28;20049;-72
2022/07/17 04:05:30;;;;;;;4.18;1.40;;;;;;;10.51;74.63;101723.44;4970818;28;20497;-72
2022/07/17 04:08:34;;;;;;;7.60;1.63;;;;;;;10.78;73.31;101722.47;4952455;29;20054;-74
2022/07/17 04:11:37;;;;;;;7.90;1.33;;;;;;;11.10;71.63;101733.59;4953024;29;20116;-73
2022/07/17 04:14:41;;;;;;;3.40;1.23;;;;;;;11.03;71.67;101726.88;4952757;29;20121;-73
2022/07/17 04:17:44;;;;;;;3.97;1.67;;;;;;;10.68;73.60;101734.16;4952936;28;20161;-73
2022/07/17 04:20:48;;;;;;;4.72;1.30;;;;;;;10.53;74.07;101737.28;4971439;28;20107;-73
2022/07/17 04:23:52;;;;;;;6.25;1.23;;;;;;;10.46;74.81;101720.94;4971309;28;20101;-73
2022/07/17 04:26:55;;;;;;;6.22;1.35;;;;;;;10.55;74.41;101731.09;4971332;28;20053;-73
2022/07/17 04:29:59;;;;;;;3.50;1.40;;;;;;;10.60;74.02;101728.34;4971369;28;20050;-73
2022/07/17 04:33:02;;;;;;;3.42;1.20;;;;;;;10.58;73.80;101735.38;4971198;28;20053;-73
2022/07/17 04:36:05;;;;;;;;;;;;;;;10.67;73.38;101732.47;4971480;28;20053;-73
2022/07/17 04:39:09;;;;;;;3.45;1.30;;;;;;;10.33;74.77;101730.94;4971063;28;20569;-73
2022/07/17 04:42:15;;;;;;;6.07;1.30;;;;;;;10.30;75.80;101736.28;4970288;28;20050;-73
2022/07/17 04:45:19;;;;;;;4.53;1.48;;;;;;;10.58;73.21;101738.84;4970913;28;20085;-73
2022/07/17 04:48:22;;;;;;;4.70;2.05;;;;;;;10.53;72.72;101737.28;4970836;28;20054;-73
2022/07/17 04:51:26;;;;;;;4.35;1.70;;;;;;;10.84;72.17;101743.22;4971180;28;20125;-73
2022/07/17 04:54:29;;;;;;;3.88;1.35;;;;;;;10.94;71.67;101746.38;4971306;28;20077;-72
2022/07/17 04:57:32;;;;;;;;;;;;;;;11.27;70.58;101752.22;4970262;28;20045;-73
2022/07/17 05:00:35;;;;;;;3.28;1.17;;;;;;;11.25;70.91;101753.16;4970011;28;20004;-72
2022/07/17 05:03:39;;;;;;;;;;;;;;;11.45;70.49;101755.91;4970985;28;20045;-73
2022/07/17 05:06:42;;;;;;;6.63;1.23;;;;;;;11.43;70.55;101764.75;4971053;28;19924;-73
2022/07/17 05:09:46;;;;;;;3.42;1.13;;;;;;;11.48;70.73;101760.19;4970559;28;20117;-76
2022/07/17 05:12:49;;;;;;;4.70;1.60;;;;;;;11.50;70.52;101768.84;4970469;28;20793;-74
2022/07/17 05:15:53;;;;;;;3.08;1.10;;;;;;;11.40;71.13;101777.03;4969722;28;20069;-76
2022/07/17 05:18:56;;;;;;;4.00;1.58;;;;;;;11.51;71.22;101778.41;4969149;28;20042;-76
2022/07/17 05:21:59;;;;;;;3.53;1.30;;;;;;;11.56;70.81;101779.13;4964839;28;20065;-75
2022/07/17 05:25:06;;;;;;;3.63;1.30;;;;;;;11.64;70.68;101777.06;4967499;28;20073;-74
2022/07/17 05:28:09;;;;;;;3.38;1.60;;;;;;;11.76;70.37;101786.22;4968480;28;20050;-74
2022/07/17 05:31:13;;;;;;;3.38;1.42;;;;;;;11.90;70.22;101770.91;4970105;28;20142;-75
2022/07/17 05:34:16;;;;;;;2.53;0.95;;;;;;;12.09;69.45;101774.53;4968937;28;20514;-75
2022/07/17 05:37:19;;;;;;;4.55;1.40;;;;;;;12.10;69.36;101770.13;4966129;28;20093;-75
2022/07/17 05:40:25;;;;;;;3.53;1.63;;;;;;;11.51;71.46;101770.56;4969854;28;20113;-75
2022/07/17 05:43:29;;;;;;;3.30;1.02;;;;;;;11.49;71.92;101772.41;4968873;28;20132;-75
2022/07/17 05:46:32;;;;;;;3.45;1.67;;;;;;;11.58;71.91;101772.03;4969020;28;20041;-74
2022/07/17 05:49:36;;;;;;;4.07;1.48;;;;;;;11.81;70.96;101769.44;4970474;28;20153;-76
2022/07/17 05:52:39;;;;;;;4.85;1.30;;;;;;;12.00;70.44;101774.88;4970056;28;20081;-75
2022/07/17 05:55:43;;;;;;;4.60;1.02;;;;;;;11.95;70.90;101774.19;4969176;28;20752;-76
2022/07/17 05:58:46;;;;;;;5.13;1.63;;;;;;;12.09;70.58;101771.00;4969299;28;20065;-73
2022/07/17 06:01:50;;;;;;;8.27;1.77;;;;;;;12.21;70.39;101773.16;4969704;28;20519;-74
2022/07/17 06:04:53;;;;;;;5.45;1.13;;;;;;;12.33;70.46;101766.59;4991394;28;20046;-75
2022/07/17 06:07:57;;;;;;;6.25;1.20;;;;;;;12.64;69.92;101766.22;4970274;28;20635;-75
2022/07/17 06:11:00;;;;;;;4.40;1.40;;;;;;;12.90;68.74;101757.25;4969489;28;20105;-74
2022/07/17 06:14:03;;;;;;;3.33;1.20;;;;;;;12.97;68.23;101760.47;4968275;28;20515;-73
2022/07/17 06:17:07;;;;;;;3.40;1.23;;;;;;;13.07;67.91;101751.28;4969334;28;20075;-75
2022/07/17 06:20:12;;;;;;;2.75;1.10;;;;;;;13.30;67.39;101754.69;4623551;28;10000407;-74
2022/07/17 06:23:18;;;;;;;2.20;0.68;;;;;;;13.24;68.95;101748.81;4953127;28;20121;-75
2022/07/17 06:26:21;;;;;;;;;;;;;;;13.28;68.13;101761.81;4965999;28;20473;-73
2022/07/17 06:29:25;;;;;;;7.10;1.63;;;;;;;13.39;67.36;101759.56;4973798;28;19928;-75
2022/07/17 06:32:29;;;;;;;4.28;1.02;;;;;;;13.69;66.54;101752.06;4973299;28;20574;-76
2022/07/17 06:35:33;;;;;;;4.93;1.20;;;;;;;13.85;65.61;101742.56;4973352;28;20122;-75
2022/07/17 06:38:37;;;;;;;4.03;0.93;;;;;;;13.93;65.91;101743.03;4972439;28;20141;-67
2022/07/17 06:41:43;;;;;;;3.95;1.10;;;;;;;14.18;64.29;101740.09;4972970;28;20049;-66
2022/07/17 06:44:47;;;;;;;5.38;1.15;;;;;;;14.44;64.10;101756.41;4973569;28;20144;-66
2022/07/17 06:47:50;;;;;;;3.95;1.15;;;;;;;14.47;63.66;101756.25;4974573;28;20057;-66
2022/07/17 06:50:54;;;;;;;4.18;1.13;;;;;;;14.72;63.52;101747.19;4974061;28;20073;-67
2022/07/17 06:53:57;;;;;;;9.60;1.58;;;;;;;14.80;62.19;101747.63;4972360;28;20571;-67
2022/07/17 06:57:00;;;;;;;5.70;1.50;;;;;;;14.89;61.79;101740.13;4972077;28;20054;-67
2022/07/17 07:00:05;;;;;;;3.28;0.88;;;;;;;14.96;61.72;101742.44;4972615;28;20069;-67
2022/07/17 07:03:08;;;;;;;3.53;1.13;;;;;;;15.08;60.91;101750.56;4972847;28;20049;-67
2022/07/17 07:06:13;;;;;;;5.90;1.10;;;;;;;15.23;60.38;101761.25;4972996;28;20981;-67
2022/07/17 07:09:16;;;;;;;3.95;1.30;;;;;;;15.37;59.90;101753.47;4971223;28;20476;-67
2022/07/17 07:12:20;;;;;;;5.28;1.20;;;;;;;15.49;59.66;101758.09;4972320;28;20122;-67
2022/07/17 07:15:24;;;;;;;4.88;1.30;;;;;;;15.68;59.25;101746.59;4972808;28;20098;-67
2022/07/17 07:38:50;;;;;;;4.60;1.23;;;;;;;16.63;54.08;101714.84;5083931;27;20384;-78
2022/07/17 07:55:13;;;;;;;6.18;1.55;;;;;;;16.89;52.46;101685.09;5112759;27;20407;-69
2022/07/17 07:58:18;;;;;;;3.60;1.00;;;;;;;17.02;51.75;101676.44;5104122;28;20156;-72
2022/07/17 08:01:21;;;;;;;4.65;1.00;;;;;;;17.14;50.36;101667.75;5104850;28;20151;-72
2022/07/17 08:04:25;;;;;;;7.45;1.15;;;;;;;17.30;50.78;101678.25;5103097;28;20104;-74
2022/07/17 08:07:29;;;;;;;5.43;1.30;;;;;;;17.40;49.64;101669.63;5092448;28;20050;-72
2022/07/17 08:10:36;;;;;;;6.95;1.02;;;;;;;17.49;50.16;101667.38;5106007;28;20523;-75
2022/07/17 08:13:41;;;;;;;4.18;0.90;;;;;;;17.52;49.20;101661.88;5082684;28;20047;-73
2022/07/17 08:16:46;;;;;;;5.57;0.90;;;;;;;17.66;49.31;101664.47;5090536;28;20151;-74
2022/07/17 08:19:54;;;;;;;6.38;1.20;;;;;;;17.68;49.02;101662.59;5082049;28;20169;-74
2022/07/17 08:23:01;;;;;;;8.27;1.65;;;;;;;17.81;49.09;101658.25;5081555;28;20051;-73
2022/07/17 08:26:05;;;;;;;3.97;0.80;;;;;;;17.85;48.41;101661.53;5083019;28;20055;-75
2022/07/17 08:29:10;;;;;;;4.80;1.00;;;;;;;17.91;48.50;101666.44;5082596;28;20055;-73
2022/07/17 08:32:14;;;;;;;4.40;1.17;;;;;;;18.12;47.32;101656.22;5089384;28;20050;-74
2022/07/17 08:35:19;;;;;;;3.25;0.90;;;;;;;18.12;48.12;101653.56;5101540;28;20096;-74
2022/07/17 08:38:23;;;;;;;4.25;1.10;;;;;;;18.29;47.20;101655.97;5102099;28;20100;-75
2022/07/17 08:41:29;;;;;;;7.97;1.48;;;;;;;18.33;47.80;101662.75;5102425;28;20050;-76
2022/07/17 08:44:33;;;;;;;8.38;1.15;;;;;;;18.60;46.93;101667.13;5102372;28;20105;-74
2022/07/17 08:47:38;;;;;;;4.65;1.10;;;;;;;18.58;46.16;101669.88;5101854;28;20058;-74
2022/07/17 08:50:42;;;;;;;7.72;1.20;;;;;;;18.67;46.75;101664.94;5102198;28;20050;-74
2022/07/17 08:53:45;;;;;;;5.07;1.02;;;;;;;18.77;45.38;101655.44;5100732;28;20054;-74
2022/07/17 08:56:48;;;;;;;6.18;1.10;;;;;;;18.85;44.01;101644.28;5087429;28;20055;-75
2022/07/17 08:59:56;;;;;;;3.92;0.90;;;;;;;18.99;44.46;101649.50;5089765;28;20561;-75
2022/07/17 09:03:07;;;;;;;8.93;1.02;;;;;;;19.27;41.71;101641.28;5083095;28;20047;-75
2022/07/17 09:06:24;;;;;;;6.88;1.05;;;;;;;19.44;42.17;101652.50;5087752;28;20086;-75
2022/07/17 09:09:28;;;;;;;5.53;0.70;;;;;;;19.45;41.89;101651.53;5089760;28;20130;-75
2022/07/17 09:12:32;;;;;;;3.53;0.80;;;;;;;19.51;41.73;101648.44;5087275;28;20085;-75
2022/07/17 09:15:35;;;;;;;4.45;0.90;;;;;;;19.63;41.51;101647.53;5084046;28;20039;-76
2022/07/17 09:18:47;;;;;;;3.67;0.98;;;;;;;20.00;42.04;101639.56;5088973;28;20055;-74
2022/07/17 09:21:51;;;;;;;7.72;1.15;;;;;;;20.05;39.16;101640.06;5090218;28;20420;-75
2022/07/17 09:24:57;;;;;;;8.15;1.27;;;;;;;20.18;38.70;101632.88;5090911;28;20097;-76
2022/07/17 09:28:04;;;;;;;8.23;1.23;;;;;;;20.14;38.03;101631.41;5069876;28;20507;-76
2022/07/17 09:31:07;;;;;;;4.50;1.23;;;;;;;20.06;38.59;101633.78;5073043;28;20132;-75
2022/07/17 09:34:17;;;;;;;2.53;0.80;;;;;;;20.26;37.53;101626.13;5071117;28;20125;-75
2022/07/17 09:37:23;;;;;;;3.80;1.67;;;;;;;20.39;35.83;101618.94;5070272;28;20047;-75
2022/07/17 09:43:50;;;;;;;7.80;1.17;;;;;;;20.41;35.28;101619.66;5076006;28;20046;-75
2022/07/17 09:46:54;;;;;;;8.38;1.00;;;;;;;20.72;36.11;101627.97;5090635;28;20055;-74
2022/07/17 09:49:59;;;;;;;3.63;1.05;;;;;;;20.82;34.53;101629.78;5090714;28;20131;-73
2022/07/17 09:53:05;;;;;;;5.18;0.80;;;;;;;20.65;35.18;101625.78;5090177;28;20416;-71
2022/07/17 09:56:09;;;;;;;2.20;0.93;;;;;;;20.65;34.89;101632.91;5049854;28;20054;-72
2022/07/17 09:59:13;;;;;;;4.10;0.80;;;;;;;20.75;35.16;101631.22;5088971;28;20408;-74
2022/07/17 10:02:19;;;;;;;3.15;0.95;;;;;;;21.09;33.72;101629.44;5090808;28;20047;-69
2022/07/17 10:05:22;;;;;;;5.15;0.93;;;;;;;21.11;33.14;101627.47;5090796;28;20047;-73
2022/07/17 10:08:26;;;;;;;2.47;0.70;;;;;;;21.14;31.01;101643.19;5090315;28;20765;-80
2022/07/17 10:11:34;;;;;;;4.72;1.10;;;;;;;20.89;31.85;101640.78;5081903;28;20051;-76
2022/07/17 10:14:41;;;;;;;4.30;0.80;;;;;;;21.09;30.85;101645.38;5068054;28;20055;-74
2022/07/17 10:17:49;;;;;;;4.57;0.90;;;;;;;20.89;30.87;101643.44;5067800;28;20082;-75
2022/07/17 10:20:53;;;;;;;3.38;0.93;;;;;;;21.26;29.30;101635.22;5067253;28;20412;-73
2022/07/17 10:23:57;;;;;;;1.85;0.60;;;;;;;21.16;29.64;101634.28;5076447;28;20100;-70
2022/07/17 10:27:02;;;;;;;2.67;0.82;;;;;;;21.21;27.40;101642.72;5086908;28;20140;-74
2022/07/17 10:30:10;;;;;;;4.85;0.88;;;;;;;21.39;28.95;101641.28;5087209;28;20136;-78
2022/07/17 10:33:20;;;;;;;4.63;1.33;;;;;;;21.80;29.30;101639.72;5087322;28;20054;-78
2022/07/17 10:36:39;;;;;;;3.40;0.73;;;;;;;21.49;28.79;101630.72;5086577;28;20047;-78
2022/07/17 10:40:19;;;;;;;4.03;1.02;;;;;;;21.30;29.21;101626.00;5066594;28;20524;-78
2022/07/17 10:43:24;;;;;;;6.50;1.40;;;;;;;21.30;30.52;101626.00;5064722;28;20043;-78
2022/07/17 10:46:28;;;;;;;3.22;0.98;;;;;;;21.25;30.22;101626.41;5072455;28;20059;-76
2022/07/17 10:49:36;;;;;;;2.50;0.80;;;;;;;21.41;31.43;101622.50;5085652;28;20421;-78
2022/07/17 10:52:41;;;;;;;3.13;0.68;;;;;;;21.89;30.14;101617.69;5086607;28;20071;-76
2022/07/17 10:55:47;;;;;;;3.75;0.90;;;;;;;21.82;30.79;101616.47;5036707;28;20142;-77
2022/07/17 10:58:52;;;;;;;4.05;1.02;;;;;;;22.02;31.75;101618.34;5026789;28;20056;-78
2022/07/17 11:01:58;;;;;;;2.42;0.60;;;;;;;22.08;28.91;101616.13;5026964;28;20520;-79
2022/07/17 11:05:12;;;;;;;6.47;1.70;;;;;;;22.04;27.74;101620.88;5024666;28;20049;-78
2022/07/17 11:08:17;;;;;;;5.15;1.15;;;;;;;22.15;29.47;101617.31;5025046;28;20057;-79
2022/07/17 11:11:43;;;;;;;4.82;1.23;;;;;;;22.26;30.97;101607.47;5024602;28;20115;-80
2022/07/17 11:14:47;;;;;;;5.47;0.70;;;;;;;22.22;28.35;101602.53;5025763;28;20052;-80
2022/07/17 11:17:51;;;;;;;2.72;0.73;;;;;;;22.62;29.08;101615.09;5025983;28;20423;-78
2022/07/17 11:20:56;;;;;;;3.28;0.60;;;;;;;22.55;28.73;101611.28;5025897;28;20110;-79
2022/07/17 11:24:03;;;;;;;4.88;1.02;;;;;;;22.77;28.15;101604.94;5031617;28;20155;-81
2022/07/17 11:27:34;;;;;;;3.72;1.33;;;;;;;22.96;28.21;101602.41;5045634;28;20102;-78
2022/07/17 11:30:45;;;;;;;3.45;0.80;;;;;;;23.08;27.39;101598.66;5045782;28;20075;-81
2022/07/17 11:33:49;;;;;;;2.50;0.68;;;;;;;23.16;28.07;101592.63;4696165;28;10000644;-80
2022/07/17 11:37:01;;;;;;;5.20;0.93;;;;;;;23.29;26.83;101593.22;5032255;28;20052;-79
2022/07/17 11:40:08;;;;;;;2.60;0.90;;;;;;;23.08;27.06;101585.31;5044944;28;20135;-79
2022/07/17 11:43:12;;;;;;;7.72;0.88;;;;;;;23.10;26.76;101587.84;5044285;28;20405;-85
2022/07/17 11:46:17;;;;;;;5.20;1.58;;;;;;;23.03;27.09;101582.19;5032259;28;20087;-75
2022/07/17 11:49:33;;;;;;;3.42;0.88;;;;;;;22.97;27.25;101583.63;5045423;28;20051;-79
2022/07/17 11:53:08;;;;;;;4.00;0.77;;;;;;;23.35;26.58;101587.34;5037044;28;20111;-82
2022/07/17 11:56:23;;;;;;;2.30;0.60;;;;;;;23.68;25.88;101579.97;5024480;28;20629;-78
2022/07/17 11:59:30;;;;;;;6.32;0.80;;;;;;;23.76;26.30;101569.44;5023358;28;20120;-79
2022/07/17 12:02:37;;;;;;;4.30;0.80;;;;;;;23.70;27.38;101570.00;5024833;28;20087;-78
2022/07/17 12:05:40;;;;;;;3.97;1.08;;;;;;;23.90;27.25;101561.00;5025120;28;20599;-78
2022/07/17 12:08:51;;;;;;;3.70;1.02;;;;;;;23.89;26.52;101564.63;5024098;28;20056;-78
2022/07/17 12:11:55;;;;;;;2.75;0.70;;;;;;;23.77;26.37;101557.78;5023122;28;20052;-78
2022/07/17 12:14:59;;;;;;;3.58;0.90;;;;;;;24.03;26.27;101557.19;5025180;28;20044;-82
2022/07/17 12:18:05;;;;;;;2.40;0.80;;;;;;;24.24;26.17;101557.00;5024239;28;20818;-81
2022/07/17 12:21:09;;;;;;;2.50;0.75;;;;;;;24.18;26.30;101552.22;5024520;28;20049;-71
2022/07/17 12:24:20;;;;;;;2.97;0.82;;;;;;;24.22;26.86;101550.94;5023994;28;20410;-67
2022/07/17 12:27:23;;;;;;;2.33;0.80;;;;;;;24.33;26.78;101548.97;5024283;28;20095;-67
2022/07/17 12:30:28;;;;;;;1.85;0.73;;;;;;;24.35;27.12;101549.66;5026452;28;20191;-67
2022/07/17 12:33:31;;;;;;;5.65;0.80;;;;;;;24.66;26.84;101545.91;5029278;28;20060;-68
2022/07/17 12:36:35;;;;;;;3.42;1.05;;;;;;;24.95;26.77;101543.09;4680397;28;10001428;-70
2022/07/17 12:39:38;;;;;;;4.00;0.93;;;;;;;25.11;25.24;101529.94;5027473;28;20079;-73
2022/07/17 12:42:45;;;;;;;3.72;0.80;;;;;;;25.54;24.86;101531.06;5027451;28;20103;-70
2022/07/17 12:45:49;;;;;;;4.90;0.70;;;;;;;25.66;23.60;101534.34;5028037;28;20048;-69
2022/07/17 12:48:53;;;;;;;2.70;0.77;;;;;;;25.86;23.20;101530.50;5028465;28;20420;-72
2022/07/17 12:51:56;;;;;;;4.55;0.75;;;;;;;26.05;24.63;101521.44;5028351;28;20048;-73
2022/07/17 12:55:00;;;;;;;2.78;0.85;;;;;;;26.00;24.01;101530.94;5056993;28;20047;-74
2022/07/17 12:58:04;;;;;;;4.65;0.70;;;;;;;26.31;23.65;101523.28;5068522;28;20640;-73
2022/07/17 13:01:08;;;;;;;1.70;0.60;;;;;;;26.67;22.51;101524.84;5068704;28;20078;-74
2022/07/17 13:04:13;;;;;;;4.85;0.98;;;;;;;26.63;22.61;101520.78;5074423;28;20066;-75
2022/07/17 13:07:17;;;;;;;3.28;0.77;;;;;;;26.83;21.38;101521.34;5087990;28;20097;-74
2022/07/17 13:10:21;;;;;;;2.65;0.77;;;;;;;27.01;21.44;101515.88;5088947;28;20047;-75
2022/07/17 13:13:24;;;;;;;3.35;0.80;;;;;;;27.26;22.20;101507.94;5089563;28;20043;-74
2022/07/17 13:16:28;;;;;;;3.53;1.27;;;;;;;27.43;21.89;101512.28;5089407;28;20051;-73
2022/07/17 13:19:32;;;;;;;5.53;1.13;;;;;;;27.53;21.47;101510.28;5088403;28;20069;-73
2022/07/17 13:22:35;;;;;;;3.13;0.77;;;;;;;27.77;21.41;101496.03;5088542;28;20063;-74
2022/07/17 13:25:39;;;;;;;2.22;0.50;;;;;;;27.74;20.84;101507.09;5087385;28;20122;-73
2022/07/17 13:28:43;;;;;;;4.57;0.90;;;;;;;27.58;21.27;101497.19;5087998;28;20093;-73
2022/07/17 13:31:47;;;;;;;4.63;0.65;;;;;;;27.96;21.02;101497.53;5088781;28;20519;-74
2022/07/17 13:34:51;;;;;;;1.90;0.57;;;;;;;28.25;21.37;101498.81;5069357;28;20128;-74
2022/07/17 13:37:56;;;;;;;3.92;0.93;;;;;;;28.55;21.72;101488.31;5069616;28;20052;-73
2022/07/17 13:40:59;;;;;;;3.92;0.60;;;;;;;28.42;20.93;101488.88;5070183;28;20722;-73
2022/07/17 13:44:05;;;;;;;3.70;1.10;;;;;;;28.67;20.99;101476.97;5069446;28;20132;-74
2022/07/17 13:47:08;;;;;;;2.38;0.60;;;;;;;28.75;20.91;101476.13;5075948;28;20070;-72
2022/07/17 13:50:12;;;;;;;4.20;0.80;;;;;;;28.89;20.88;101479.91;5089463;28;20546;-73
2022/07/17 13:53:16;;;;;;;3.70;0.82;;;;;;;29.39;20.74;101471.34;5089242;28;20046;-75
2022/07/17 13:56:19;;;;;;;4.68;1.00;;;;;;;29.57;20.08;101473.69;5089358;28;20043;-74
2022/07/17 13:59:23;;;;;;;3.60;0.73;;;;;;;30.13;19.83;101470.66;5088662;28;20094;-74
2022/07/17 14:02:29;;;;;;;7.47;0.80;;;;;;;30.27;19.69;101467.13;5088865;28;20038;-75
2022/07/17 14:05:32;;;;;;;3.55;0.60;;;;;;;30.76;19.35;101474.63;5088829;28;20070;-74
2022/07/17 14:08:36;;;;;;;4.43;0.88;;;;;;;31.25;18.26;101468.50;5089044;28;20420;-80
2022/07/17 14:11:40;;;;;;;3.55;1.25;;;;;;;31.91;17.84;101462.03;5088604;28;20170;-74
2022/07/17 14:14:44;;;;;;;3.05;1.00;;;;;;;32.58;16.96;101457.78;5089468;28;20038;-78
2022/07/17 14:17:47;;;;;;;4.65;1.00;;;;;;;34.69;15.05;101455.22;5089931;28;20039;-75
2022/07/17 14:20:51;;;;;;;2.75;1.10;;;;;;;35.22;15.38;101449.44;5089567;28;20141;-72
2022/07/17 14:23:54;;;;;;;4.38;1.42;;;;;;;35.26;15.64;101439.81;5069368;28;20040;-73
2022/07/17 14:26:57;;;;;;;3.25;1.05;;;;;;;34.82;15.73;101443.44;5068850;28;20646;-72
2022/07/17 14:30:01;;;;;;;3.50;1.13;;;;;;;37.07;13.12;101437.50;5076907;28;20417;-72
2022/07/17 14:33:05;;;;;;;4.28;1.13;;;;;;;36.19;13.80;101430.75;5089761;28;20043;-72
2022/07/17 14:36:09;;;;;;;3.47;1.17;;;;;;;37.76;12.93;101431.53;5090515;28;20092;-72
2022/07/17 14:39:13;;;;;;;4.90;1.60;;;;;;;38.72;12.55;101429.13;5090832;28;20070;-73
2022/07/17 14:42:16;;;;;;;4.32;1.38;;;;;;;38.44;12.44;101430.78;5090302;28;20050;-73
2022/07/17 14:45:19;;;;;;;8.57;1.60;;;;;;;38.21;12.57;101422.66;5089424;28;20166;-73
2022/07/17 14:48:23;;;;;;;4.30;1.17;;;;;;;38.17;12.79;101433.25;5089833;28;20063;-73
2022/07/17 14:51:26;;;;;;;3.38;1.20;;;;;;;39.38;11.42;101408.41;5089631;28;20165;-73
2022/07/17 14:54:30;;;;;;;2.13;0.95;;;;;;;37.14;14.01;101412.84;5089817;28;20090;-74
2022/07/17 14:57:33;;;;;;;4.05;1.35;;;;;;;39.64;11.82;101414.22;5090533;28;20058;-74
2022/07/17 15:00:37;;;;;;;3.22;1.42;;;;;;;39.42;12.00;101417.75;5087972;28;20127;-74
2022/07/17 15:03:40;;;;;;;4.38;1.13;;;;;;;37.53;12.95;101416.00;5088214;28;20062;-74
2022/07/17 15:06:44;;;;;;;4.47;1.27;;;;;;;36.39;13.89;101407.88;5089024;28;20672;-74
2022/07/17 15:09:47;;;;;;;8.50;1.70;;;;;;;37.00;13.80;101409.53;5089432;28;20057;-74
2022/07/17 15:12:50;;;;;;;5.00;1.20;;;;;;;37.78;13.17;101402.06;5089100;28;20047;-74
2022/07/17 15:15:55;;;;;;;3.95;1.25;;;;;;;38.28;13.00;101406.97;5089836;28;20098;-74
2022/07/17 15:18:58;;;;;;;4.93;1.23;;;;;;;37.65;13.26;101404.00;5089824;28;20133;-74
2022/07/17 15:22:01;;;;;;;4.35;1.08;;;;;;;37.80;12.96;101400.75;5088796;28;20050;-74
2022/07/17 15:25:06;;;;;;;4.35;1.00;;;;;;;37.54;13.21;101393.94;5089222;28;20070;-74
2022/07/17 15:28:10;;;;;;;4.15;1.10;;;;;;;37.14;13.61;101386.44;5088298;28;20051;-75
2022/07/17 15:31:13;;;;;;;2.80;0.98;;;;;;;37.82;13.38;101392.34;5089360;28;20516;-74
2022/07/17 15:34:16;;;;;;;3.90;1.05;;;;;;;37.87;13.24;101381.53;5089976;28;20097;-74
2022/07/17 15:37:23;;;;;;;9.05;1.38;;;;;;;38.13;13.59;101389.22;5089833;28;20563;-74
2022/07/17 15:40:27;;;;;;;2.42;1.20;;;;;;;38.01;13.14;101384.88;5089778;28;20086;-74